CDT,Max TemperatureF,Mean TemperatureF,Min TemperatureF,Max Dew PointF,MeanDew PointF,Min DewpointF,Max Humidity, Mean Humidity, Min Humidity, Max Sea Level PressureIn, Mean Sea Level PressureIn, Min Sea Level PressureIn, Max VisibilityMiles, Mean VisibilityMiles, Min VisibilityMiles, Max Wind SpeedMPH, Mean Wind SpeedMPH, Max Gust SpeedMPH,PrecipitationIn, CloudCover, Events, WindDirDegrees
2013-3-1,28,20,13,13,10,4,74,62,48,30.26,30.21,30.15,10,10,10,13,8,18,0.00,4,Snow,11
2013-3-2,26,16,5,7,4,1,84,63,35,30.26,30.20,30.13,10,10,10,13,5,17,0.00,0,,340
2013-3-3,27,11,-5,2,-2,-11,88,60,26,30.14,30.09,30.04,10,10,10,6,1,,0.00,0,,198
2013-3-4,26,14,1,15,8,-4,85,69,51,30.11,30.08,30.04,10,10,7,15,6,20,0.00,4,,84
2013-3-5,26,24,21,23,17,13,91,76,67,30.14,30.02,29.95,10,8,1,17,9,24,0.00,8,Snow,34
2013-3-6,30,20,9,20,17,7,94,76,59,30.29,30.24,30.14,10,10,10,10,7,,0.00,6,,317
2013-3-7,29,14,0,14,7,-4,92,71,49,30.39,30.36,30.29,10,10,7,7,1,,0.00,0,,118
2013-3-8,35,21,7,22,17,5,92,76,56,30.42,30.35,30.23,10,10,7,15,4,20,0.00,0,,143
2013-3-9,35,30,25,32,27,21,99,87,74,30.22,29.98,29.78,10,6,1,12,6,18,0.17,7,Rain-Snow,134
2013-3-10,34,31,28,33,32,27,100,96,88,29.85,29.77,29.67,10,4,0,25,5,33,0.23,8,Fog-Rain-Snow,30
2013-3-11,31,27,23,28,25,17,96,87,75,29.72,29.62,29.55,10,7,1,13,8,20,0.01,8,Rain-Snow,339
2013-3-12,26,22,17,20,16,10,92,75,58,30.01,29.82,29.72,10,9,2,14,7,24,0.00,8,Snow,286
2013-3-13,28,20,13,13,6,2,83,57,34,30.26,30.18,30.01,10,10,5,14,8,21,0.00,2,Snow,290
2013-3-14,30,16,3,24,12,0,88,74,43,30.26,30.15,29.99,10,10,10,10,2,,0.00,3,,209
2013-3-15,32,27,21,29,25,19,95,90,86,29.99,29.90,29.85,10,4,1,17,5,23,0.03,6,Rain-Snow,101
2013-3-16,25,20,15,19,11,6,91,70,54,30.10,29.98,29.86,10,9,1,17,9,22,0.00,5,Snow,344
2013-3-17,22,12,3,10,4,-2,79,64,48,30.28,30.16,30.01,10,10,10,13,7,17,0.00,0,,79
2013-3-18,27,19,12,25,17,9,93,87,76,30.00,29.70,29.51,10,6,0,20,8,31,0.08,6,Snow,117
2013-3-19,22,16,9,8,4,0,79,63,46,29.96,29.79,29.60,10,8,3,24,15,38,0.00,4,Snow,272
2013-3-20,16,9,3,2,-2,-8,73,60,50,30.03,30.00,29.96,10,10,10,15,10,24,0.00,1,,280
2013-3-21,23,13,3,8,4,-2,80,65,49,30.02,30.00,29.97,10,10,10,13,5,21,0.00,1,,290
2013-3-22,32,16,-1,14,7,-5,87,67,41,30.05,30.01,29.98,10,10,10,9,2,,0.00,0,,330
2013-3-23,33,22,12,20,16,9,90,71,51,30.12,30.08,30.04,10,10,7,10,1,,0.00,6,,90
2013-3-24,31,28,25,21,19,16,82,70,58,30.07,29.95,29.85,10,10,10,17,7,24,0.00,8,,46
2013-3-25,34,26,19,21,18,14,88,68,48,30.12,29.97,29.88,10,10,10,15,9,21,0.00,5,,357
2013-3-26,36,30,25,23,19,16,75,63,45,30.23,30.18,30.12,10,10,10,12,6,16,0.00,8,,321
2013-3-27,38,30,21,21,17,14,83,56,39,30.29,30.26,30.23,10,10,10,13,3,20,0.00,4,,303
2013-3-28,40,26,12,18,15,9,93,61,35,30.33,30.29,30.26,10,10,10,13,2,18,0.00,0,,287
2013-3-29,45,30,14,21,17,12,90,61,29,30.31,30.26,30.18,10,10,10,7,1,,0.00,0,,204
2013-3-30,41,34,28,39,29,21,100,77,62,30.18,29.95,29.79,10,7,0,10,5,16,0.11,8,Fog-Rain,199
2013-3-31,36,32,27,34,26,10,100,77,38,29.91,29.75,29.68,10,6,0,18,8,26,0.00,7,Fog-Rain-Snow,282